createdAt,value
2022-08-27T00:00:21.461Z,17.20
2022-08-27T00:02:48.675Z,15.90
2022-08-27T00:05:16.854Z,17.30
2022-08-27T00:07:44.929Z,17.40
2022-08-27T00:10:16.511Z,15.10
2022-08-27T00:12:43.440Z,18.60
2022-08-27T00:15:11.039Z,17.50
2022-08-27T00:17:39.081Z,15.90
2022-08-27T00:20:07.463Z,14.10
2022-08-27T00:22:34.822Z,18.30
2022-08-27T00:25:01.985Z,19.40
2022-08-27T00:27:28.826Z,16.70
2022-08-27T00:29:55.470Z,15.20
2022-08-27T00:32:22.626Z,18.30
2022-08-27T00:34:49.576Z,17.00
2022-08-27T00:37:16.323Z,15.60
2022-08-27T00:39:43.166Z,16.50
2022-08-27T00:42:10.418Z,15.00
2022-08-27T00:44:37.676Z,17.20
2022-08-27T00:47:11.177Z,17.60
2022-08-27T00:49:48.058Z,15.50
2022-08-27T00:52:26.236Z,13.00
2022-08-27T00:55:03.155Z,15.00
2022-08-27T00:57:30.619Z,16.50
2022-08-27T00:59:57.363Z,15.30
2022-08-27T01:02:24.086Z,15.90
2022-08-27T01:05:15.018Z,13.60
2022-08-27T01:07:44.880Z,14.40
2022-08-27T01:10:15.743Z,14.30
2022-08-27T01:12:43.239Z,15.90
2022-08-27T01:15:18.130Z,17.20
2022-08-27T01:17:48.764Z,13.20
2022-08-27T01:20:23.033Z,14.40
2022-08-27T01:23:00.564Z,14.20
2022-08-27T01:25:28.909Z,15.50
2022-08-27T01:28:00.160Z,15.10
2022-08-27T01:30:27.424Z,20.50
2022-08-27T01:32:54.264Z,19.20
2022-08-27T01:35:22.235Z,19.20
2022-08-27T01:37:52.399Z,16.50
2022-08-27T01:40:20.789Z,20.30
2022-08-27T01:42:51.030Z,14.30
2022-08-27T01:45:32.977Z,14.40
2022-08-27T01:48:00.541Z,15.40
2022-08-27T01:50:31.379Z,14.00
2022-08-27T01:53:02.781Z,13.10
2022-08-27T01:55:29.481Z,13.20
2022-08-27T01:57:56.838Z,12.80
2022-08-27T02:00:27.336Z,16.30
2022-08-27T02:02:56.584Z,19.20
2022-08-27T02:05:23.940Z,17.10
2022-08-27T02:07:51.058Z,16.10
2022-08-27T02:10:21.778Z,16.50
2022-08-27T02:12:48.783Z,22.00
2022-08-27T02:15:16.044Z,13.60
2022-08-27T02:17:42.991Z,14.90
2022-08-27T02:20:10.385Z,15.00
2022-08-27T02:22:38.734Z,18.20
2022-08-27T02:25:10.309Z,18.70
2022-08-27T02:27:37.411Z,14.20
2022-08-27T02:30:05.679Z,15.50
2022-08-27T02:32:32.543Z,15.30
2022-08-27T02:34:59.879Z,15.80
2022-08-27T02:37:26.986Z,21.20
2022-08-27T02:39:53.861Z,16.40
2022-08-27T02:42:20.679Z,17.00
2022-08-27T02:44:47.421Z,14.50
2022-08-27T02:47:14.518Z,17.30
2022-08-27T02:49:41.531Z,15.50
2022-08-27T02:52:08.579Z,17.00
2022-08-27T02:54:35.734Z,16.00
2022-08-27T02:57:02.785Z,15.20
2022-08-27T02:59:29.434Z,15.50
2022-08-27T03:01:56.458Z,17.80
2022-08-27T03:04:23.429Z,16.80
2022-08-27T03:06:50.689Z,16.10
2022-08-27T03:09:17.531Z,17.80
2022-08-27T03:11:44.171Z,13.70
2022-08-27T03:14:11.121Z,21.70
2022-08-27T03:16:37.975Z,17.40
2022-08-27T03:19:06.769Z,16.30
2022-08-27T03:21:34.903Z,15.50
2022-08-27T03:24:11.408Z,18.30
2022-08-27T03:26:40.011Z,17.20
2022-08-27T03:29:07.565Z,17.60
2022-08-27T03:31:34.474Z,17.70
2022-08-27T03:34:03.963Z,16.50
2022-08-27T03:36:31.382Z,16.20
2022-08-27T03:38:58.542Z,15.20
2022-08-27T03:41:53.957Z,18.40
2022-08-27T03:44:21.504Z,17.10
2022-08-27T03:46:50.843Z,19.90
2022-08-27T03:49:20.728Z,16.20
2022-08-27T03:51:50.718Z,17.20
2022-08-27T03:54:17.815Z,18.00
2022-08-27T03:56:44.709Z,18.00
2022-08-27T03:59:11.408Z,20.80
2022-08-27T04:01:38.198Z,18.60
2022-08-27T04:04:04.901Z,19.50
2022-08-27T04:06:31.743Z,24.50
2022-08-27T04:08:58.387Z,18.60
2022-08-27T04:11:25.337Z,17.50
2022-08-27T04:13:52.081Z,19.30
2022-08-27T04:16:18.862Z,17.10
2022-08-27T04:18:45.877Z,26.80
2022-08-27T04:21:14.835Z,21.60
2022-08-27T04:23:42.978Z,19.50
2022-08-27T04:26:11.337Z,15.60
2022-08-27T04:28:38.975Z,15.70
2022-08-27T04:31:12.846Z,14.90
2022-08-27T04:33:50.791Z,12.90
2022-08-27T04:36:19.511Z,14.50
2022-08-27T04:38:47.176Z,13.00
2022-08-27T04:41:13.817Z,11.70
2022-08-27T04:43:40.564Z,15.70
2022-08-27T04:46:07.966Z,11.80
2022-08-27T04:48:35.588Z,12.00
2022-08-27T04:51:05.410Z,12.40
2022-08-27T04:53:33.587Z,12.70
2022-08-27T04:56:00.228Z,14.60
2022-08-27T04:58:27.175Z,11.40
2022-08-27T05:00:57.199Z,14.40
2022-08-27T05:03:24.563Z,23.10
2022-08-27T05:05:52.872Z,20.30
2022-08-27T05:08:20.508Z,16.40
2022-08-27T05:10:51.157Z,12.50
2022-08-27T05:13:20.072Z,13.60
2022-08-27T05:15:48.185Z,12.20
2022-08-27T05:18:15.266Z,9.40
2022-08-27T05:20:45.206Z,11.10
2022-08-27T05:23:13.163Z,9.20
2022-08-27T05:25:41.878Z,10.60
2022-08-27T05:28:13.213Z,10.90
2022-08-27T05:30:43.502Z,12.70
2022-08-27T05:33:12.020Z,10.50
2022-08-27T05:35:48.596Z,12.50
2022-08-27T05:38:16.567Z,9.80
2022-08-27T05:40:43.315Z,9.50
2022-08-27T05:43:10.943Z,11.60
2022-08-27T05:45:48.814Z,12.80
2022-08-27T05:48:16.456Z,15.40
2022-08-27T05:50:44.981Z,13.70
2022-08-27T05:53:13.227Z,11.60
2022-08-27T05:55:43.143Z,10.00
2022-08-27T05:58:11.101Z,11.30
2022-08-27T06:00:38.163Z,10.70
2022-08-27T06:03:04.909Z,10.80
2022-08-27T06:05:31.711Z,10.70
2022-08-27T06:07:58.499Z,10.90
2022-08-27T06:10:25.244Z,12.10
2022-08-27T06:12:56.764Z,11.50
2022-08-27T06:15:23.836Z,12.80
2022-08-27T06:17:50.603Z,9.50
2022-08-27T06:20:17.454Z,11.30
2022-08-27T06:22:44.194Z,10.40
2022-08-27T06:25:10.937Z,11.90
2022-08-27T06:27:37.716Z,16.20
2022-08-27T06:30:04.878Z,11.30
2022-08-27T06:32:31.594Z,15.90
2022-08-27T06:34:58.540Z,13.40
2022-08-27T06:37:25.518Z,14.90
2022-08-27T06:39:52.360Z,8.30
2022-08-27T06:42:19.081Z,9.30
2022-08-27T06:44:45.828Z,7.30
2022-08-27T06:47:12.564Z,9.50
2022-08-27T06:49:46.292Z,11.50
2022-08-27T06:52:13.528Z,11.40
2022-08-27T06:54:40.284Z,13.00
2022-08-27T06:57:07.014Z,12.40
2022-08-27T06:59:33.759Z,10.60
2022-08-27T07:02:00.467Z,8.80
2022-08-27T07:04:32.541Z,7.70
2022-08-27T07:07:04.028Z,12.30
2022-08-27T07:09:31.345Z,8.30
2022-08-27T07:11:58.847Z,8.40
2022-08-27T07:14:25.694Z,13.10
2022-08-27T07:16:52.333Z,10.70
2022-08-27T07:19:20.003Z,11.00
2022-08-27T07:21:48.280Z,10.60
2022-08-27T07:24:15.235Z,11.50
2022-08-27T07:26:44.289Z,7.70
2022-08-27T07:29:14.194Z,8.00
2022-08-27T07:34:08.357Z,10.30
2022-08-27T07:36:35.724Z,9.20
2022-08-27T07:39:02.473Z,10.80
2022-08-27T07:41:31.796Z,11.40
2022-08-27T07:44:01.587Z,7.00
2022-08-27T07:46:28.273Z,10.80
2022-08-27T07:48:55.947Z,7.90
2022-08-27T07:51:26.218Z,10.20
2022-08-27T07:53:53.824Z,8.10
2022-08-27T07:56:21.481Z,8.50
2022-08-27T07:58:48.406Z,7.70
2022-08-27T08:01:15.183Z,8.40
2022-08-27T08:03:42.004Z,8.80
2022-08-27T08:06:11.898Z,9.30
2022-08-27T08:11:10.636Z,9.00
2022-08-27T08:13:37.994Z,9.60
2022-08-27T08:16:05.514Z,9.50
2022-08-27T08:18:33.026Z,10.20
2022-08-27T08:21:02.441Z,11.70
2022-08-27T08:23:29.587Z,7.30
2022-08-27T08:25:56.330Z,11.30
2022-08-27T08:28:23.383Z,9.80
2022-08-27T08:30:52.036Z,11.50
2022-08-27T08:33:19.227Z,6.20
2022-08-27T08:35:46.276Z,10.40
2022-08-27T08:38:13.095Z,9.70
2022-08-27T08:40:43.518Z,7.90
2022-08-27T08:43:35.494Z,10.70
2022-08-27T08:46:26.688Z,7.70
2022-08-27T08:49:05.640Z,13.10
2022-08-27T08:51:40.677Z,10.50
2022-08-27T08:54:20.738Z,9.60
2022-08-27T08:57:06.321Z,8.30
2022-08-27T08:59:37.760Z,11.10
2022-08-27T09:02:13.453Z,10.60
2022-08-27T09:04:42.503Z,9.00
2022-08-27T09:07:15.215Z,7.20
2022-08-27T09:10:01.007Z,8.50
2022-08-27T09:12:30.369Z,9.40
2022-08-27T09:15:12.382Z,11.50
2022-08-27T09:17:39.782Z,8.50
2022-08-27T09:20:07.181Z,8.80
2022-08-27T09:23:06.666Z,9.10
2022-08-27T09:25:37.504Z,7.00
2022-08-27T09:28:11.017Z,8.60
2022-08-27T09:30:43.348Z,9.70
2022-08-27T09:33:11.270Z,10.30
2022-08-27T09:35:43.965Z,14.60
2022-08-27T09:38:11.831Z,8.50
2022-08-27T09:40:49.071Z,9.20
2022-08-27T09:43:15.755Z,6.50
2022-08-27T09:46:06.496Z,11.70
2022-08-27T09:48:36.458Z,10.40
2022-08-27T09:51:19.250Z,8.60
2022-08-27T09:53:53.115Z,9.90
2022-08-27T09:56:26.205Z,12.40
2022-08-27T09:58:59.532Z,11.70
2022-08-27T10:01:28.578Z,9.80
2022-08-27T10:04:11.196Z,8.00
2022-08-27T10:06:44.446Z,13.20
2022-08-27T10:09:11.060Z,8.90
2022-08-27T10:11:50.610Z,7.60
2022-08-27T10:14:43.876Z,8.20
2022-08-27T10:17:32.530Z,9.70
2022-08-27T10:20:14.189Z,11.60
2022-08-27T10:23:12.311Z,10.10
2022-08-27T10:25:50.764Z,9.10
2022-08-27T10:28:40.848Z,10.50
2022-08-27T10:31:52.528Z,5.60
2022-08-27T10:34:52.456Z,9.60
2022-08-27T10:40:16.322Z,10.10
2022-08-27T10:42:57.709Z,14.50
2022-08-27T10:45:58.465Z,11.80
2022-08-27T10:49:20.886Z,8.30
2022-08-27T10:52:08.432Z,7.80
2022-08-27T10:54:47.318Z,15.50
2022-08-27T10:57:58.737Z,8.00
2022-08-27T11:00:38.180Z,11.90
2022-08-27T11:03:14.163Z,10.10
2022-08-27T11:05:45.818Z,9.40
2022-08-27T11:08:38.934Z,10.60
2022-08-27T11:14:09.363Z,12.10
2022-08-27T11:16:45.611Z,8.50
2022-08-27T11:19:47.224Z,9.80
2022-08-27T11:22:24.141Z,12.40
2022-08-27T11:25:02.420Z,6.80
2022-08-27T11:27:32.442Z,11.70
2022-08-27T11:30:18.890Z,12.30
2022-08-27T11:33:13.836Z,8.90
2022-08-27T11:36:14.300Z,8.60
2022-08-27T11:41:22.539Z,9.60
2022-08-27T11:43:50.305Z,8.10
2022-08-27T11:46:26.052Z,10.90
2022-08-27T11:48:59.818Z,13.00
2022-08-27T11:51:38.761Z,8.80
2022-08-27T11:54:21.938Z,9.30
2022-08-27T11:56:49.704Z,12.90
2022-08-27T11:59:30.907Z,7.00
2022-08-27T12:02:11.049Z,9.70
2022-08-27T12:04:41.375Z,7.10
2022-08-27T12:07:28.294Z,9.20
2022-08-27T12:10:30.104Z,7.60
2022-08-27T12:13:00.907Z,6.50
2022-08-27T12:15:55.562Z,7.40
2022-08-27T12:18:41.637Z,6.40
2022-08-27T12:21:24.739Z,11.00
2022-08-27T12:24:20.971Z,7.20
2022-08-27T12:27:13.317Z,9.20
2022-08-27T12:29:51.529Z,9.10
2022-08-27T12:32:40.339Z,11.50
2022-08-27T12:35:33.864Z,8.30
2022-08-27T12:38:16.094Z,9.70
2022-08-27T12:40:56.848Z,10.20
2022-08-27T12:43:26.843Z,8.20
2022-08-27T12:46:07.546Z,9.70
2022-08-27T12:48:41.457Z,10.60
2022-08-27T12:51:32.121Z,7.30
2022-08-27T12:54:28.911Z,8.80
2022-08-27T12:57:12.113Z,10.40
2022-08-27T13:00:03.610Z,7.70
2022-08-27T13:02:49.873Z,17.00
2022-08-27T13:05:20.537Z,7.00
2022-08-27T13:07:49.161Z,6.50
2022-08-27T13:10:21.267Z,5.10
2022-08-27T13:12:49.081Z,8.50
2022-08-27T13:15:19.509Z,6.40
2022-08-27T13:17:46.836Z,6.00
2022-08-27T13:20:31.603Z,8.40
2022-08-27T13:22:58.460Z,7.30
2022-08-27T13:25:28.288Z,10.40
2022-08-27T13:30:35.562Z,8.10
2022-08-27T13:33:06.730Z,7.20
2022-08-27T13:35:34.703Z,6.20
2022-08-27T13:38:02.880Z,7.60
2022-08-27T13:40:37.564Z,6.20
2022-08-27T13:43:08.896Z,6.80
2022-08-27T13:45:39.400Z,14.50
2022-08-27T13:48:06.764Z,8.40
2022-08-27T13:50:36.582Z,9.30
2022-08-27T13:55:47.579Z,8.00
2022-08-27T13:58:20.268Z,5.50
2022-08-27T14:00:47.011Z,10.60
2022-08-27T14:03:35.916Z,11.20
2022-08-27T14:06:03.030Z,11.20
2022-08-27T14:08:34.161Z,8.40
2022-08-27T14:11:05.673Z,7.00
2022-08-27T14:13:43.502Z,7.50
2022-08-27T14:16:23.124Z,7.30
2022-08-27T14:18:59.353Z,6.20
2022-08-27T14:21:26.918Z,5.40
2022-08-27T14:23:53.552Z,8.40
2022-08-27T14:26:21.424Z,10.00
2022-08-27T14:28:48.379Z,10.50
2022-08-27T14:31:16.313Z,9.20
2022-08-27T14:33:43.002Z,7.80
2022-08-27T14:36:11.602Z,12.70
2022-08-27T14:38:42.318Z,8.40
2022-08-27T14:41:09.369Z,8.20
2022-08-27T14:43:36.628Z,11.70
2022-08-27T14:46:04.741Z,8.70
2022-08-27T14:48:34.113Z,12.30
2022-08-27T14:51:07.286Z,11.20
2022-08-27T14:53:33.975Z,8.90
2022-08-27T14:56:00.606Z,9.10
2022-08-27T14:58:27.871Z,6.60
2022-08-27T15:00:54.711Z,11.90
2022-08-27T15:03:21.459Z,10.10
2022-08-27T15:05:48.201Z,10.40
2022-08-27T15:08:16.086Z,18.20
2022-08-27T15:10:43.639Z,15.30
2022-08-27T15:13:10.493Z,13.40
2022-08-27T15:15:37.467Z,19.40
2022-08-27T15:18:04.836Z,15.00
2022-08-27T15:20:31.957Z,16.70
2022-08-27T15:22:59.000Z,14.40
2022-08-27T15:25:25.864Z,10.20
2022-08-27T15:27:52.695Z,16.70
2022-08-27T15:30:26.242Z,15.20
2022-08-27T15:32:53.864Z,15.50
2022-08-27T15:35:24.237Z,17.80
2022-08-27T15:37:50.936Z,17.70
2022-08-27T15:40:19.371Z,16.50
2022-08-27T15:42:50.409Z,15.20
2022-08-27T15:45:17.321Z,19.50
2022-08-27T15:47:44.074Z,17.90
2022-08-27T15:50:11.434Z,14.30
2022-08-27T15:52:41.177Z,19.50
2022-08-27T15:55:18.988Z,16.10
2022-08-27T15:57:45.574Z,13.00
2022-08-27T16:00:13.291Z,13.60
2022-08-27T16:02:41.739Z,13.60
2022-08-27T16:05:08.501Z,11.30
2022-08-27T16:07:35.323Z,14.20
2022-08-27T16:10:02.287Z,13.80
2022-08-27T16:12:29.132Z,11.40
2022-08-27T16:14:56.677Z,9.30
2022-08-27T16:17:25.085Z,12.60
2022-08-27T16:19:51.878Z,12.60
2022-08-27T16:22:19.497Z,15.30
2022-08-27T16:24:46.164Z,19.90
2022-08-27T16:27:12.784Z,16.50
2022-08-27T16:29:39.517Z,16.40
2022-08-27T16:32:08.817Z,14.30
2022-08-27T16:34:35.383Z,15.60
2022-08-27T16:37:02.130Z,13.90
2022-08-27T16:39:33.038Z,13.00
2022-08-27T16:42:01.799Z,16.90
2022-08-27T16:44:28.455Z,12.40
2022-08-27T16:46:55.364Z,15.10
2022-08-27T16:49:21.938Z,11.50
2022-08-27T16:51:49.153Z,18.10
2022-08-27T16:54:16.757Z,11.50
2022-08-27T16:56:44.395Z,13.30
2022-08-27T16:59:13.043Z,17.80
2022-08-27T17:01:43.826Z,14.70
2022-08-27T17:04:18.397Z,16.00
2022-08-27T17:06:50.619Z,20.30
2022-08-27T17:09:18.901Z,20.30
2022-08-27T17:11:50.518Z,20.00
2022-08-27T17:14:17.202Z,18.10
2022-08-27T17:16:44.018Z,18.20
2022-08-27T17:19:16.759Z,19.90
2022-08-27T17:21:45.253Z,19.00
2022-08-27T17:24:13.403Z,17.50
2022-08-27T17:26:40.534Z,22.00
2022-08-27T17:29:07.246Z,20.00
2022-08-27T17:31:37.579Z,21.50
2022-08-27T17:34:07.221Z,28.20
2022-08-27T17:36:33.995Z,27.10
2022-08-27T17:39:01.944Z,19.00
2022-08-27T17:41:34.622Z,19.90
2022-08-27T17:44:13.173Z,25.30
2022-08-27T17:46:39.988Z,22.90
2022-08-27T17:49:06.567Z,26.50
2022-08-27T17:51:33.237Z,27.10
2022-08-27T17:54:01.232Z,25.90
2022-08-27T17:56:29.334Z,26.10
2022-08-27T17:58:56.556Z,31.80
2022-08-27T18:01:30.367Z,28.60
2022-08-27T18:03:57.975Z,25.90
2022-08-27T18:06:26.680Z,29.30
2022-08-27T18:08:53.471Z,33.60
2022-08-27T18:11:20.477Z,27.90
2022-08-27T18:13:52.576Z,29.20
2022-08-27T18:16:20.131Z,30.10
2022-08-27T18:18:47.366Z,30.10
2022-08-27T18:21:14.416Z,30.60
2022-08-27T18:23:52.467Z,33.50
2022-08-27T18:26:21.522Z,32.60
2022-08-27T18:28:49.293Z,36.20
2022-08-27T18:31:18.830Z,32.50
2022-08-27T18:33:46.866Z,30.10
2022-08-27T18:36:13.505Z,27.30
2022-08-27T18:38:40.087Z,30.10
2022-08-27T18:41:08.375Z,27.20
2022-08-27T18:43:36.316Z,30.00
2022-08-27T18:46:04.805Z,24.50
2022-08-27T18:48:32.608Z,28.70
2022-08-27T18:51:02.152Z,26.80
2022-08-27T18:53:33.475Z,33.30
2022-08-27T18:56:01.217Z,29.80
2022-08-27T18:58:28.890Z,30.30
2022-08-27T19:00:59.640Z,24.90
2022-08-27T19:03:29.735Z,28.90
2022-08-27T19:05:56.901Z,31.70
2022-08-27T19:08:24.778Z,32.10
2022-08-27T19:10:51.601Z,39.30
2022-08-27T19:13:18.156Z,29.90
2022-08-27T19:15:58.529Z,28.80
2022-08-27T19:18:27.794Z,35.80
2022-08-27T19:20:54.579Z,32.10
2022-08-27T19:23:22.894Z,30.00
2022-08-27T19:25:51.119Z,26.10
2022-08-27T19:28:22.632Z,28.20
2022-08-27T19:30:49.342Z,30.40
2022-08-27T19:33:16.113Z,25.80
2022-08-27T19:35:43.136Z,29.20
2022-08-27T19:38:13.038Z,31.10
2022-08-27T19:40:40.483Z,30.40
2022-08-27T19:43:08.593Z,31.10
2022-08-27T19:45:36.714Z,32.00
2022-08-27T19:48:08.819Z,30.20
2022-08-27T19:50:35.589Z,31.70
2022-08-27T19:53:02.535Z,28.10
2022-08-27T19:55:29.659Z,29.50
2022-08-27T19:57:56.750Z,34.00
2022-08-27T20:00:27.590Z,33.20
2022-08-27T20:02:55.184Z,33.60
2022-08-27T20:05:22.875Z,30.70
2022-08-27T20:07:52.128Z,34.80
2022-08-27T20:10:21.800Z,34.20
2022-08-27T20:12:49.707Z,29.50
2022-08-27T20:15:16.813Z,33.10
2022-08-27T20:17:45.224Z,33.30
2022-08-27T20:20:12.600Z,33.90
2022-08-27T20:22:43.362Z,37.20
2022-08-27T20:27:37.666Z,29.90
2022-08-27T20:30:05.758Z,34.00
2022-08-27T20:32:32.383Z,32.00
2022-08-27T20:34:59.124Z,27.80
2022-08-27T20:37:25.771Z,30.40
2022-08-27T20:39:52.992Z,31.60
2022-08-27T20:42:20.593Z,30.80
2022-08-27T20:44:48.903Z,30.40
2022-08-27T20:47:17.625Z,30.60
2022-08-27T20:49:44.832Z,25.90
2022-08-27T20:52:12.799Z,29.90
2022-08-27T20:54:39.919Z,25.50
2022-08-27T20:57:06.620Z,26.80
2022-08-27T20:59:33.232Z,25.20
2022-08-27T21:02:10.783Z,30.50
2022-08-27T21:04:47.715Z,26.50
2022-08-27T21:07:16.506Z,29.80
2022-08-27T21:09:55.678Z,28.00
2022-08-27T21:12:25.091Z,24.30
2022-08-27T21:14:54.763Z,25.70
2022-08-27T21:17:24.210Z,28.20
2022-08-27T21:19:50.811Z,25.00
2022-08-27T21:22:17.364Z,29.10
2022-08-27T21:24:44.093Z,27.80
2022-08-27T21:27:10.838Z,21.20
2022-08-27T21:29:37.683Z,22.50
2022-08-27T21:32:04.528Z,20.50
2022-08-27T21:34:31.489Z,23.30
2022-08-27T21:36:59.245Z,27.60
2022-08-27T21:39:25.898Z,24.60
2022-08-27T21:41:52.422Z,24.80
2022-08-27T21:44:19.172Z,24.80
2022-08-27T21:46:45.857Z,22.10
2022-08-27T21:49:12.550Z,26.80
2022-08-27T21:51:39.203Z,22.70
2022-08-27T21:54:05.841Z,24.10
2022-08-27T21:56:33.114Z,26.70
2022-08-27T21:58:59.811Z,26.60
2022-08-27T22:01:26.365Z,24.20
2022-08-27T22:03:53.031Z,26.00
2022-08-27T22:06:20.009Z,27.50
2022-08-27T22:08:47.546Z,24.00
2022-08-27T22:11:15.021Z,24.50
2022-08-27T22:13:41.859Z,22.80
2022-08-27T22:16:08.618Z,27.00
2022-08-27T22:18:35.386Z,24.00
2022-08-27T22:21:06.296Z,27.20
2022-08-27T22:23:33.034Z,23.00
2022-08-27T22:26:00.396Z,22.20
2022-08-27T22:28:27.239Z,20.70
2022-08-27T22:30:53.759Z,21.70
2022-08-27T22:33:20.618Z,23.50
2022-08-27T22:35:48.095Z,24.30
2022-08-27T22:38:14.731Z,19.60
2022-08-27T22:40:41.663Z,21.80
2022-08-27T22:43:08.881Z,23.70
2022-08-27T22:45:35.782Z,26.20
2022-08-27T22:48:02.583Z,25.50
2022-08-27T22:50:29.143Z,24.60
2022-08-27T22:52:55.811Z,22.70
2022-08-27T22:55:23.995Z,20.90
2022-08-27T22:57:53.296Z,27.00
2022-08-27T23:00:29.733Z,20.30
2022-08-27T23:02:56.503Z,20.40
2022-08-27T23:05:23.927Z,21.50
2022-08-27T23:07:51.033Z,21.30
2022-08-27T23:10:19.885Z,17.00
2022-08-27T23:12:47.936Z,20.60
2022-08-27T23:15:18.918Z,21.20
2022-08-27T23:17:45.694Z,22.80
2022-08-27T23:20:13.845Z,23.30
2022-08-27T23:22:41.266Z,21.90
2022-08-27T23:25:10.657Z,18.10
2022-08-27T23:27:37.380Z,22.90
2022-08-27T23:30:05.322Z,22.70
2022-08-27T23:32:31.836Z,27.70
2022-08-27T23:34:58.713Z,24.20
2022-08-27T23:37:25.482Z,25.00
2022-08-27T23:39:52.193Z,25.60
2022-08-27T23:42:19.617Z,26.30
2022-08-27T23:44:47.662Z,21.10
2022-08-27T23:47:15.914Z,23.80
2022-08-27T23:49:42.795Z,23.90
2022-08-27T23:52:11.200Z,20.30
2022-08-27T23:54:37.842Z,25.00
2022-08-27T23:57:04.594Z,26.00
2022-08-27T23:59:31.304Z,21.60
